Imlay, Nevada
Current Conditions -  °F | °C
As of 3:56 AM on Sunday 23 Nov 2014 (Local Time) from KWMC Reporting Station
Clear Clear  
Wind Chill: 19°   Ceiling: Unl
Heat Index: 27°   Visibility: 10mi
Dew Point: 23°   Wind: 7mph
Humidity: 85%   Direction: 260°W
Pressure: 30.29"   Gusts: NA
Location:  40.66°N, 118.15°W
Report Text: KWMC 231156Z AUTO 26006KT 10SM CLR M03/M05 A3029 RMK AO2 SLP270 70018 T10281050 10033 21033 51018
Loading
Personal Weather Stations






























Interactive Weather Map New forecast layout! Learn more

10-Day Weather Forecast

Advertisements
Track Severe Weather on mobile